sensor_id;sensor_type;location;lat;lon;timestamp;pressure;altitude;pressure_sealevel;temperature;humidity
78299;BME280;67556;55.656;12.590;2023-06-14T00:00:39;102105.63;;;17.40;55.75
78299;BME280;67556;55.656;12.590;2023-06-14T00:03:23;102105.59;;;17.37;55.47
78299;BME280;67556;55.656;12.590;2023-06-14T00:05:51;102110.00;;;17.35;55.40
78299;BME280;67556;55.656;12.590;2023-06-14T00:08:18;102106.50;;;17.37;55.24
78299;BME280;67556;55.656;12.590;2023-06-14T00:10:46;102107.38;;;17.36;55.34
78299;BME280;67556;55.656;12.590;2023-06-14T00:13:13;102109.06;;;17.33;55.37
78299;BME280;67556;55.656;12.590;2023-06-14T00:15:39;102109.75;;;17.26;55.66
78299;BME280;67556;55.656;12.590;2023-06-14T00:18:06;102107.84;;;17.23;55.61
78299;BME280;67556;55.656;12.590;2023-06-14T00:20:52;102104.91;;;17.14;56.04
78299;BME280;67556;55.656;12.590;2023-06-14T00:23:33;102097.69;;;17.13;56.01
78299;BME280;67556;55.656;12.590;2023-06-14T00:25:59;102105.91;;;17.17;55.57
78299;BME280;67556;55.656;12.590;2023-06-14T00:28:26;102097.66;;;17.11;56.00
78299;BME280;67556;55.656;12.590;2023-06-14T00:30:52;102097.59;;;17.10;56.13
78299;BME280;67556;55.656;12.590;2023-06-14T00:33:19;102112.81;;;17.08;56.60
78299;BME280;67556;55.656;12.590;2023-06-14T00:35:45;102109.00;;;17.01;56.75
78299;BME280;67556;55.656;12.590;2023-06-14T00:38:13;102115.28;;;17.00;56.56
78299;BME280;67556;55.656;12.590;2023-06-14T00:40:42;102115.16;;;16.97;56.26
78299;BME280;67556;55.656;12.590;2023-06-14T00:43:09;102108.84;;;16.95;56.24
78299;BME280;67556;55.656;12.590;2023-06-14T00:45:41;102115.03;;;16.92;56.43
78299;BME280;67556;55.656;12.590;2023-06-14T00:48:13;102114.72;;;16.82;56.74
78299;BME280;67556;55.656;12.590;2023-06-14T00:50:40;102105.69;;;16.80;56.78
78299;BME280;67556;55.656;12.590;2023-06-14T00:53:12;102111.84;;;16.76;56.89
78299;BME280;67556;55.656;12.590;2023-06-14T00:55:42;102109.13;;;16.76;56.73
78299;BME280;67556;55.656;12.590;2023-06-14T00:58:08;102111.63;;;16.69;57.59
78299;BME280;67556;55.656;12.590;2023-06-14T01:00:50;102107.94;;;16.67;58.14
78299;BME280;67556;55.656;12.590;2023-06-14T01:03:19;102115.88;;;16.63;57.96
78299;BME280;67556;55.656;12.590;2023-06-14T01:05:48;102112.25;;;16.61;58.09
78299;BME280;67556;55.656;12.590;2023-06-14T01:08:22;102116.50;;;16.54;58.66
78299;BME280;67556;55.656;12.590;2023-06-14T01:11:12;102118.16;;;16.49;58.47
78299;BME280;67556;55.656;12.590;2023-06-14T01:13:45;102123.53;;;16.49;58.46
78299;BME280;67556;55.656;12.590;2023-06-14T01:16:14;102114.47;;;16.47;58.08
78299;BME280;67556;55.656;12.590;2023-06-14T01:18:43;102119.00;;;16.48;58.25
78299;BME280;67556;55.656;12.590;2023-06-14T01:21:21;102119.72;;;16.42;58.21
78299;BME280;67556;55.656;12.590;2023-06-14T01:23:50;102114.19;;;16.38;58.46
78299;BME280;67556;55.656;12.590;2023-06-14T01:26:19;102115.97;;;16.37;58.72
78299;BME280;67556;55.656;12.590;2023-06-14T01:28:45;102118.69;;;16.39;58.89
78299;BME280;67556;55.656;12.590;2023-06-14T01:31:17;102116.00;;;16.39;58.69
78299;BME280;67556;55.656;12.590;2023-06-14T01:33:52;102111.63;;;16.42;57.77
78299;BME280;67556;55.656;12.590;2023-06-14T01:36:27;102113.38;;;16.40;58.24
78299;BME280;67556;55.656;12.590;2023-06-14T01:39:01;102112.41;;;16.38;58.27
78299;BME280;67556;55.656;12.590;2023-06-14T01:41:29;102116.72;;;16.33;57.83
78299;BME280;67556;55.656;12.590;2023-06-14T01:44:04;102115.06;;;16.37;57.92
78299;BME280;67556;55.656;12.590;2023-06-14T01:46:49;102125.69;;;16.34;57.88
78299;BME280;67556;55.656;12.590;2023-06-14T01:49:35;102120.41;;;16.35;57.47
78299;BME280;67556;55.656;12.590;2023-06-14T01:52:03;102114.94;;;16.34;58.06
78299;BME280;67556;55.656;12.590;2023-06-14T01:54:51;102121.09;;;16.30;58.55
78299;BME280;67556;55.656;12.590;2023-06-14T01:57:27;102126.47;;;16.30;58.71
78299;BME280;67556;55.656;12.590;2023-06-14T01:59:57;102119.25;;;16.29;58.98
78299;BME280;67556;55.656;12.590;2023-06-14T02:02:25;102125.56;;;16.29;58.88
78299;BME280;67556;55.656;12.590;2023-06-14T02:04:51;102122.88;;;16.29;59.16
78299;BME280;67556;55.656;12.590;2023-06-14T02:07:19;102135.22;;;16.23;59.22
78299;BME280;67556;55.656;12.590;2023-06-14T02:09:45;102138.66;;;16.18;59.55
78299;BME280;67556;55.656;12.590;2023-06-14T02:12:13;102143.09;;;16.18;59.66
78299;BME280;67556;55.656;12.590;2023-06-14T02:14:58;102141.28;;;16.17;59.36
78299;BME280;67556;55.656;12.590;2023-06-14T02:17:25;102136.63;;;16.11;59.09
78299;BME280;67556;55.656;12.590;2023-06-14T02:20:11;102137.41;;;16.09;59.64
78299;BME280;67556;55.656;12.590;2023-06-14T02:22:38;102137.56;;;16.13;59.55
78299;BME280;67556;55.656;12.590;2023-06-14T02:25:06;102138.53;;;16.15;59.44
78299;BME280;67556;55.656;12.590;2023-06-14T02:27:34;102142.03;;;16.13;59.93
78299;BME280;67556;55.656;12.590;2023-06-14T02:30:02;102140.16;;;16.10;60.14
78299;BME280;67556;55.656;12.590;2023-06-14T02:32:30;102147.25;;;16.08;59.71
78299;BME280;67556;55.656;12.590;2023-06-14T02:35:17;102145.38;;;16.06;59.38
78299;BME280;67556;55.656;12.590;2023-06-14T02:37:53;102142.59;;;16.03;59.20
78299;BME280;67556;55.656;12.590;2023-06-14T02:40:20;102139.81;;;16.01;59.19
78299;BME280;67556;55.656;12.590;2023-06-14T02:42:49;102149.06;;;16.09;58.72
78299;BME280;67556;55.656;12.590;2023-06-14T02:45:16;102142.78;;;16.09;58.87
78299;BME280;67556;55.656;12.590;2023-06-14T02:47:57;102144.53;;;16.07;58.78
78299;BME280;67556;55.656;12.590;2023-06-14T02:50:33;102147.13;;;16.05;58.92
78299;BME280;67556;55.656;12.590;2023-06-14T02:52:59;102149.75;;;16.02;58.83
78299;BME280;67556;55.656;12.590;2023-06-14T02:55:28;102152.50;;;16.05;59.03
78299;BME280;67556;55.656;12.590;2023-06-14T02:57:55;102147.88;;;16.01;59.18
78299;BME280;67556;55.656;12.590;2023-06-14T03:03:05;102147.13;;;16.05;58.78
78299;BME280;67556;55.656;12.590;2023-06-14T03:05:46;102149.81;;;16.05;59.23
78299;BME280;67556;55.656;12.590;2023-06-14T03:08:24;102157.13;;;16.09;58.86
78299;BME280;67556;55.656;12.590;2023-06-14T03:10:52;102152.50;;;16.05;59.08
78299;BME280;67556;55.656;12.590;2023-06-14T03:13:23;102159.00;;;16.10;59.34
78299;BME280;67556;55.656;12.590;2023-06-14T03:15:50;102162.69;;;16.14;59.50
78299;BME280;67556;55.656;12.590;2023-06-14T03:18:17;102163.50;;;16.11;59.83
78299;BME280;67556;55.656;12.590;2023-06-14T03:20:44;102157.38;;;16.15;59.83
78299;BME280;67556;55.656;12.590;2023-06-14T03:23:12;102159.34;;;16.21;59.83
78299;BME280;67556;55.656;12.590;2023-06-14T03:25:38;102159.34;;;16.21;59.46
78299;BME280;67556;55.656;12.590;2023-06-14T03:28:08;102164.81;;;16.24;59.65
78299;BME280;67556;55.656;12.590;2023-06-14T03:30:36;102154.97;;;16.25;59.99
78299;BME280;67556;55.656;12.590;2023-06-14T03:33:03;102159.56;;;16.27;59.66
78299;BME280;67556;55.656;12.590;2023-06-14T03:35:45;102164.94;;;16.27;59.61
78299;BME280;67556;55.656;12.590;2023-06-14T03:38:11;102160.56;;;16.31;60.04
78299;BME280;67556;55.656;12.590;2023-06-14T03:40:39;102165.00;;;16.30;60.14
78299;BME280;67556;55.656;12.590;2023-06-14T03:43:06;102166.78;;;16.30;59.83
78299;BME280;67556;55.656;12.590;2023-06-14T03:45:32;102166.88;;;16.31;60.10
78299;BME280;67556;55.656;12.590;2023-06-14T03:48:02;102162.53;;;16.36;60.15
78299;BME280;67556;55.656;12.590;2023-06-14T03:50:38;102171.53;;;16.37;60.06
78299;BME280;67556;55.656;12.590;2023-06-14T03:53:16;102166.88;;;16.31;60.07
78299;BME280;67556;55.656;12.590;2023-06-14T03:55:45;102173.47;;;16.41;59.48
78299;BME280;67556;55.656;12.590;2023-06-14T03:58:28;102179.78;;;16.43;59.76
78299;BME280;67556;55.656;12.590;2023-06-14T04:01:13;102179.78;;;16.43;59.83
78299;BME280;67556;55.656;12.590;2023-06-14T04:03:41;102185.34;;;16.48;59.55
78299;BME280;67556;55.656;12.590;2023-06-14T04:06:15;102182.81;;;16.52;59.93
78299;BME280;67556;55.656;12.590;2023-06-14T04:08:51;102173.09;;;16.57;59.59
78299;BME280;67556;55.656;12.590;2023-06-14T04:11:19;102173.28;;;16.63;59.81
78299;BME280;67556;55.656;12.590;2023-06-14T04:13:46;102186.84;;;16.66;59.68
78299;BME280;67556;55.656;12.590;2023-06-14T04:16:20;102174.34;;;16.68;59.26
78299;BME280;67556;55.656;12.590;2023-06-14T04:18:49;102181.69;;;16.73;59.10
78299;BME280;67556;55.656;12.590;2023-06-14T04:21:33;102180.84;;;16.74;59.25
78299;BME280;67556;55.656;12.590;2023-06-14T04:24:12;102178.16;;;16.74;58.30
78299;BME280;67556;55.656;12.590;2023-06-14T04:26:39;102175.72;;;16.81;57.85
78299;BME280;67556;55.656;12.590;2023-06-14T04:29:11;102176.69;;;16.85;57.67
78299;BME280;67556;55.656;12.590;2023-06-14T04:31:46;102186.53;;;16.84;56.51
78299;BME280;67556;55.656;12.590;2023-06-14T04:34:18;102181.31;;;16.89;56.42
78299;BME280;67556;55.656;12.590;2023-06-14T04:36:52;102179.69;;;16.94;55.82
78299;BME280;67556;55.656;12.590;2023-06-14T04:39:22;102171.69;;;16.97;55.63
78299;BME280;67556;55.656;12.590;2023-06-14T04:41:58;102170.91;;;17.01;55.20
78299;BME280;67556;55.656;12.590;2023-06-14T04:44:27;102165.59;;;17.03;55.13
78299;BME280;67556;55.656;12.590;2023-06-14T04:47:02;102171.16;;;17.09;54.15
78299;BME280;67556;55.656;12.590;2023-06-14T04:49:42;102178.28;;;17.07;54.02
78299;BME280;67556;55.656;12.590;2023-06-14T04:52:28;102180.03;;;17.06;53.58
78299;BME280;67556;55.656;12.590;2023-06-14T04:54:55;102181.63;;;16.98;53.53
78299;BME280;67556;55.656;12.590;2023-06-14T04:57:32;102185.28;;;17.02;53.77
78299;BME280;67556;55.656;12.590;2023-06-14T05:00:22;102187.22;;;17.06;53.50
78299;BME280;67556;55.656;12.590;2023-06-14T05:02:53;102184.78;;;17.15;53.95
78299;BME280;67556;55.656;12.590;2023-06-14T05:05:21;102184.09;;;17.20;53.91
78299;BME280;67556;55.656;12.590;2023-06-14T05:07:48;102178.84;;;17.25;53.46
78299;BME280;67556;55.656;12.590;2023-06-14T05:10:16;102182.19;;;17.16;53.90
78299;BME280;67556;55.656;12.590;2023-06-14T05:12:52;102182.09;;;17.15;53.61
78299;BME280;67556;55.656;12.590;2023-06-14T05:15:26;102171.56;;;17.23;53.24
78299;BME280;67556;55.656;12.590;2023-06-14T05:17:54;102169.84;;;17.25;53.86
78299;BME280;67556;55.656;12.590;2023-06-14T05:20:36;102173.63;;;17.31;53.61
78299;BME280;67556;55.656;12.590;2023-06-14T05:23:09;102170.22;;;17.37;52.59
78299;BME280;67556;55.656;12.590;2023-06-14T05:25:40;102171.94;;;17.35;51.62
78299;BME280;67556;55.656;12.590;2023-06-14T05:28:13;102165.50;;;17.30;52.25
78299;BME280;67556;55.656;12.590;2023-06-14T05:30:42;102165.75;;;17.37;52.53
78299;BME280;67556;55.656;12.590;2023-06-14T05:33:10;102164.00;;;17.39;51.94
78299;BME280;67556;55.656;12.590;2023-06-14T05:35:52;102168.66;;;17.45;51.25
78299;BME280;67556;55.656;12.590;2023-06-14T05:38:24;102165.78;;;17.39;50.85
78299;BME280;67556;55.656;12.590;2023-06-14T05:41:01;102161.53;;;17.47;50.93
78299;BME280;67556;55.656;12.590;2023-06-14T05:43:38;102168.94;;;17.54;51.02
78299;BME280;67556;55.656;12.590;2023-06-14T05:46:05;102161.97;;;17.62;50.35
78299;BME280;67556;55.656;12.590;2023-06-14T05:48:47;102168.13;;;17.58;51.07
78299;BME280;67556;55.656;12.590;2023-06-14T05:51:16;102163.81;;;17.65;51.17
78299;BME280;67556;55.656;12.590;2023-06-14T05:53:50;102165.84;;;17.74;51.36
78299;BME280;67556;55.656;12.590;2023-06-14T05:56:18;102167.81;;;17.78;50.70
78299;BME280;67556;55.656;12.590;2023-06-14T05:58:50;102159.81;;;17.81;50.34
78299;BME280;67556;55.656;12.590;2023-06-14T06:01:16;102163.59;;;17.87;49.88
78299;BME280;67556;55.656;12.590;2023-06-14T06:03:43;102175.44;;;17.94;49.61
78299;BME280;67556;55.656;12.590;2023-06-14T06:06:31;102169.09;;;17.92;49.07
78299;BME280;67556;55.656;12.590;2023-06-14T06:09:14;102174.59;;;17.95;48.75
78299;BME280;67556;55.656;12.590;2023-06-14T06:11:40;102169.84;;;17.86;48.66
78299;BME280;67556;55.656;12.590;2023-06-14T06:14:13;102178.09;;;17.92;48.43
78299;BME280;67556;55.656;12.590;2023-06-14T06:16:40;102175.66;;;18.02;47.55
78299;BME280;67556;55.656;12.590;2023-06-14T06:19:26;102177.88;;;17.85;48.93
78299;BME280;67556;55.656;12.590;2023-06-14T06:21:54;102171.06;;;17.99;48.72
78299;BME280;67556;55.656;12.590;2023-06-14T06:24:20;102178.56;;;18.09;47.68
78299;BME280;67556;55.656;12.590;2023-06-14T06:26:49;102185.09;;;18.19;47.65
78299;BME280;67556;55.656;12.590;2023-06-14T06:29:34;102179.78;;;18.22;47.88
78299;BME280;67556;55.656;12.590;2023-06-14T06:32:01;102189.78;;;18.26;46.69
78299;BME280;67556;55.656;12.590;2023-06-14T06:34:46;102186.28;;;18.29;47.07
78299;BME280;67556;55.656;12.590;2023-06-14T06:37:16;102188.97;;;18.29;46.19
78299;BME280;67556;55.656;12.590;2023-06-14T06:39:54;102188.22;;;18.36;45.64
78299;BME280;67556;55.656;12.590;2023-06-14T06:42:22;102193.53;;;18.33;44.87
78299;BME280;67556;55.656;12.590;2023-06-14T06:44:55;102196.50;;;18.42;44.37
78299;BME280;67556;55.656;12.590;2023-06-14T06:47:25;102194.03;;;18.51;44.57
78299;BME280;67556;55.656;12.590;2023-06-14T06:49:52;102197.59;;;18.50;43.82
78299;BME280;67556;55.656;12.590;2023-06-14T06:52:25;102199.50;;;18.54;43.59
78299;BME280;67556;55.656;12.590;2023-06-14T06:54:53;102197.06;;;18.66;43.63
78299;BME280;67556;55.656;12.590;2023-06-14T06:57:21;102197.25;;;18.71;42.59
78299;BME280;67556;55.656;12.590;2023-06-14T06:59:50;102198.16;;;18.72;42.97
78299;BME280;67556;55.656;12.590;2023-06-14T07:02:18;102209.59;;;18.63;42.60
78299;BME280;67556;55.656;12.590;2023-06-14T07:04:57;102207.88;;;18.66;42.15
78299;BME280;67556;55.656;12.590;2023-06-14T07:07:33;102208.97;;;18.72;42.03
78299;BME280;67556;55.656;12.590;2023-06-14T07:10:07;102208.25;;;18.80;41.23
78299;BME280;67556;55.656;12.590;2023-06-14T07:12:34;102205.47;;;18.76;41.67
78299;BME280;67556;55.656;12.590;2023-06-14T07:15:05;102211.88;;;18.81;41.58
78299;BME280;67556;55.656;12.590;2023-06-14T07:17:42;102211.78;;;18.78;41.46
78299;BME280;67556;55.656;12.590;2023-06-14T07:20:16;102211.16;;;18.88;40.96
78299;BME280;67556;55.656;12.590;2023-06-14T07:22:49;102205.88;;;18.94;41.32
78299;BME280;67556;55.656;12.590;2023-06-14T07:25:21;102212.41;;;19.04;39.30
78299;BME280;67556;55.656;12.590;2023-06-14T07:27:48;102210.75;;;19.09;38.29
78299;BME280;67556;55.656;12.590;2023-06-14T07:30:17;102214.47;;;19.15;37.96
78299;BME280;67556;55.656;12.590;2023-06-14T07:32:56;102222.72;;;19.22;37.58
78299;BME280;67556;55.656;12.590;2023-06-14T07:35:34;102219.34;;;19.32;37.23
78299;BME280;67556;55.656;12.590;2023-06-14T07:38:18;102220.28;;;19.34;36.22
78299;BME280;67556;55.656;12.590;2023-06-14T07:41:04;102225.81;;;19.40;36.85
78299;BME280;67556;55.656;12.590;2023-06-14T07:43:30;102221.44;;;19.45;36.40
78299;BME280;67556;55.656;12.590;2023-06-14T07:45:57;102214.31;;;19.50;36.07
78299;BME280;67556;55.656;12.590;2023-06-14T07:48:42;102216.25;;;19.56;35.48
78299;BME280;67556;55.656;12.590;2023-06-14T07:51:11;102221.81;;;19.62;35.35
78299;BME280;67556;55.656;12.590;2023-06-14T07:53:45;102213.84;;;19.68;35.43
78299;BME280;67556;55.656;12.590;2023-06-14T07:56:27;102212.88;;;19.66;35.38
78299;BME280;67556;55.656;12.590;2023-06-14T07:58:54;102206.66;;;19.70;33.71
78299;BME280;67556;55.656;12.590;2023-06-14T08:01:20;102211.28;;;19.76;34.04
78299;BME280;67556;55.656;12.590;2023-06-14T08:03:52;102215.69;;;19.71;32.88
78299;BME280;67556;55.656;12.590;2023-06-14T08:06:43;102204.19;;;19.81;33.92
78299;BME280;67556;55.656;12.590;2023-06-14T08:09:12;102212.31;;;19.82;33.52
78299;BME280;67556;55.656;12.590;2023-06-14T08:11:57;102207.72;;;19.78;33.91
78299;BME280;67556;55.656;12.590;2023-06-14T08:14:24;102207.03;;;19.88;32.14
78299;BME280;67556;55.656;12.590;2023-06-14T08:16:51;102207.16;;;19.96;30.77
78299;BME280;67556;55.656;12.590;2023-06-14T08:19:25;102209.94;;;19.99;33.56
78299;BME280;67556;55.656;12.590;2023-06-14T08:21:57;102215.28;;;19.96;32.56
78299;BME280;67556;55.656;12.590;2023-06-14T08:24:25;102206.41;;;20.02;31.61
78299;BME280;67556;55.656;12.590;2023-06-14T08:27:11;102204.84;;;20.14;32.40
78299;BME280;67556;55.656;12.590;2023-06-14T08:29:39;102207.69;;;20.24;31.49
78299;BME280;67556;55.656;12.590;2023-06-14T08:32:07;102208.53;;;20.19;29.88
78299;BME280;67556;55.656;12.590;2023-06-14T08:34:34;102209.53;;;20.26;30.44
78299;BME280;67556;55.656;12.590;2023-06-14T08:37:01;102206.91;;;20.31;31.14
78299;BME280;67556;55.656;12.590;2023-06-14T08:39:30;102216.94;;;20.36;30.41
78299;BME280;67556;55.656;12.590;2023-06-14T08:42:12;102203.44;;;20.38;29.96
78299;BME280;67556;55.656;12.590;2023-06-14T08:44:40;102209.81;;;20.41;31.41
78299;BME280;67556;55.656;12.590;2023-06-14T08:47:15;102212.75;;;20.54;30.83
78299;BME280;67556;55.656;12.590;2023-06-14T08:49:45;102215.56;;;20.60;30.65
78299;BME280;67556;55.656;12.590;2023-06-14T08:52:21;102209.38;;;20.68;29.77
78299;BME280;67556;55.656;12.590;2023-06-14T08:54:49;102209.44;;;20.72;29.50
78299;BME280;67556;55.656;12.590;2023-06-14T08:57:25;102204.13;;;20.78;28.91
78299;BME280;67556;55.656;12.590;2023-06-14T08:59:56;102215.00;;;20.81;28.46
78299;BME280;67556;55.656;12.590;2023-06-14T09:02:24;102211.44;;;20.85;28.52
78299;BME280;67556;55.656;12.590;2023-06-14T09:04:50;102200.50;;;20.77;28.32
78299;BME280;67556;55.656;12.590;2023-06-14T09:07:17;102212.47;;;20.90;27.74
78299;BME280;67556;55.656;12.590;2023-06-14T09:10:07;102214.41;;;21.02;28.47
78299;BME280;67556;55.656;12.590;2023-06-14T09:12:35;102209.06;;;21.06;27.98
78299;BME280;67556;55.656;12.590;2023-06-14T09:15:02;102203.78;;;21.15;28.22
78299;BME280;67556;55.656;12.590;2023-06-14T09:17:44;102201.94;;;21.14;28.45
78299;BME280;67556;55.656;12.590;2023-06-14T09:20:19;102197.59;;;21.26;28.75
78299;BME280;67556;55.656;12.590;2023-06-14T09:22:53;102206.66;;;21.28;29.02
78299;BME280;67556;55.656;12.590;2023-06-14T09:25:21;102197.69;;;21.32;28.96
78299;BME280;67556;55.656;12.590;2023-06-14T09:28:09;102200.50;;;21.36;29.43
78299;BME280;67556;55.656;12.590;2023-06-14T09:30:36;102203.28;;;21.44;29.55
78299;BME280;67556;55.656;12.590;2023-06-14T09:33:17;102201.69;;;21.60;29.43
78299;BME280;67556;55.656;12.590;2023-06-14T09:35:45;102206.16;;;21.55;29.96
78299;BME280;67556;55.656;12.590;2023-06-14T09:38:17;102195.34;;;21.59;29.54
78299;BME280;67556;55.656;12.590;2023-06-14T09:40:51;102193.56;;;21.61;30.08
78299;BME280;67556;55.656;12.590;2023-06-14T09:43:19;102197.31;;;21.74;30.57
78299;BME280;67556;55.656;12.590;2023-06-14T09:45:47;102202.94;;;21.89;30.31
78299;BME280;67556;55.656;12.590;2023-06-14T09:48:14;102192.16;;;21.96;30.65
78299;BME280;67556;55.656;12.590;2023-06-14T09:51:01;102182.22;;;21.96;30.01
78299;BME280;67556;55.656;12.590;2023-06-14T09:53:30;102195.91;;;22.10;30.23
78299;BME280;67556;55.656;12.590;2023-06-14T09:55:58;102186.81;;;22.06;29.98
78299;BME280;67556;55.656;12.590;2023-06-14T09:58:28;102181.53;;;22.14;29.62
78299;BME280;67556;55.656;12.590;2023-06-14T10:00:55;102187.94;;;22.21;29.93
78299;BME280;67556;55.656;12.590;2023-06-14T10:03:28;102188.91;;;22.30;29.80
78299;BME280;67556;55.656;12.590;2023-06-14T10:05:58;102194.31;;;22.29;28.23
78299;BME280;67556;55.656;12.590;2023-06-14T10:08:30;102186.19;;;22.32;28.50
78299;BME280;67556;55.656;12.590;2023-06-14T10:10:59;102187.88;;;22.19;28.94
78299;BME280;67556;55.656;12.590;2023-06-14T10:13:45;102188.03;;;22.34;28.50
78299;BME280;67556;55.656;12.590;2023-06-14T10:16:16;102185.44;;;22.48;28.08
78299;BME280;67556;55.656;12.590;2023-06-14T10:18:49;102177.34;;;22.57;27.38
78299;BME280;67556;55.656;12.590;2023-06-14T10:21:23;102182.63;;;22.36;26.74
78299;BME280;67556;55.656;12.590;2023-06-14T10:23:53;102181.63;;;22.28;27.17
78299;BME280;67556;55.656;12.590;2023-06-14T10:26:29;102173.63;;;22.43;26.86
78299;BME280;67556;55.656;12.590;2023-06-14T10:29:00;102169.09;;;22.45;27.25
78299;BME280;67556;55.656;12.590;2023-06-14T10:31:43;102169.97;;;22.38;26.62
78299;BME280;67556;55.656;12.590;2023-06-14T10:34:24;102171.00;;;22.54;26.16
78299;BME280;67556;55.656;12.590;2023-06-14T10:37:01;102162.84;;;22.54;26.90
78299;BME280;67556;55.656;12.590;2023-06-14T10:39:30;102158.31;;;22.53;27.01
78299;BME280;67556;55.656;12.590;2023-06-14T10:42:01;102165.66;;;22.63;27.26
78299;BME280;67556;55.656;12.590;2023-06-14T10:44:42;102153.97;;;22.78;27.36
78299;BME280;67556;55.656;12.590;2023-06-14T10:47:24;102154.00;;;22.82;27.92
78299;BME280;67556;55.656;12.590;2023-06-14T10:49:54;102155.78;;;22.77;26.93
78299;BME280;67556;55.656;12.590;2023-06-14T10:52:35;102154.00;;;22.87;27.02
78299;BME280;67556;55.656;12.590;2023-06-14T10:55:17;102151.41;;;22.98;26.80
78299;BME280;67556;55.656;12.590;2023-06-14T10:57:49;102154.09;;;22.90;27.10
78299;BME280;67556;55.656;12.590;2023-06-14T11:00:35;102156.72;;;22.81;26.92
78299;BME280;67556;55.656;12.590;2023-06-14T11:03:31;102145.88;;;22.84;26.68
78299;BME280;67556;55.656;12.590;2023-06-14T11:06:22;102154.09;;;22.95;26.82
78299;BME280;67556;55.656;12.590;2023-06-14T11:09:13;102142.41;;;23.09;27.19
78299;BME280;67556;55.656;12.590;2023-06-14T11:11:45;102144.28;;;23.24;27.11
78299;BME280;67556;55.656;12.590;2023-06-14T11:14:21;102131.63;;;23.28;26.31
78299;BME280;67556;55.656;12.590;2023-06-14T11:16:48;102140.72;;;23.40;26.45
78299;BME280;67556;55.656;12.590;2023-06-14T11:19:16;102132.59;;;23.45;26.00
78299;BME280;67556;55.656;12.590;2023-06-14T11:21:47;102136.13;;;23.26;26.18
78299;BME280;67556;55.656;12.590;2023-06-14T11:24:20;102136.19;;;23.35;26.16
78299;BME280;67556;55.656;12.590;2023-06-14T11:27:01;102135.28;;;23.47;25.05
78299;BME280;67556;55.656;12.590;2023-06-14T11:29:31;102131.69;;;23.51;25.62
78299;BME280;67556;55.656;12.590;2023-06-14T11:32:13;102131.72;;;23.63;25.85
78299;BME280;67556;55.656;12.590;2023-06-14T11:34:46;102132.72;;;23.79;25.34
78299;BME280;67556;55.656;12.590;2023-06-14T11:37:18;102120.03;;;23.90;26.01
78299;BME280;67556;55.656;12.590;2023-06-14T11:39:46;102120.94;;;23.86;25.11
78299;BME280;67556;55.656;12.590;2023-06-14T11:42:13;102124.56;;;23.99;25.48
78299;BME280;67556;55.656;12.590;2023-06-14T11:44:49;102114.59;;;24.11;24.90
78299;BME280;67556;55.656;12.590;2023-06-14T11:47:16;102111.88;;;24.25;25.40
78299;BME280;67556;55.656;12.590;2023-06-14T11:49:43;102105.50;;;24.19;24.02
78299;BME280;67556;55.656;12.590;2023-06-14T11:52:21;102112.78;;;24.47;24.36
78299;BME280;67556;55.656;12.590;2023-06-14T11:54:48;102100.97;;;24.44;24.29
78299;BME280;67556;55.656;12.590;2023-06-14T11:57:34;102111.91;;;24.48;23.97
78299;BME280;67556;55.656;12.590;2023-06-14T12:00:10;102111.88;;;24.51;23.11
78299;BME280;67556;55.656;12.590;2023-06-14T12:02:54;102101.91;;;24.32;24.06
78299;BME280;67556;55.656;12.590;2023-06-14T12:05:30;102099.16;;;24.55;24.94
78299;BME280;67556;55.656;12.590;2023-06-14T12:08:00;102098.22;;;24.63;23.11
78299;BME280;67556;55.656;12.590;2023-06-14T12:10:39;102086.41;;;24.74;23.70
78299;BME280;67556;55.656;12.590;2023-06-14T12:13:17;102098.13;;;24.97;23.17
78299;BME280;67556;55.656;12.590;2023-06-14T12:15:44;102089.94;;;25.00;23.10
78299;BME280;67556;55.656;12.590;2023-06-14T12:18:33;102086.28;;;25.17;22.44
78299;BME280;67556;55.656;12.590;2023-06-14T12:21:01;102080.72;;;25.38;23.15
78299;BME280;67556;55.656;12.590;2023-06-14T12:23:45;102088.84;;;25.47;22.37
78299;BME280;67556;55.656;12.590;2023-06-14T12:26:19;102086.88;;;25.71;22.82
78299;BME280;67556;55.656;12.590;2023-06-14T12:29:04;102082.25;;;25.82;22.72
78299;BME280;67556;55.656;12.590;2023-06-14T12:31:33;102079.53;;;25.83;22.71
78299;BME280;67556;55.656;12.590;2023-06-14T12:34:15;102082.94;;;26.13;22.27
78299;BME280;67556;55.656;12.590;2023-06-14T12:36:43;102080.19;;;26.11;22.19
78299;BME280;67556;55.656;12.590;2023-06-14T12:39:21;102082.06;;;26.09;21.85
78299;BME280;67556;55.656;12.590;2023-06-14T12:42:07;102081.09;;;26.13;20.18
78299;BME280;67556;55.656;12.590;2023-06-14T12:44:44;102074.00;;;25.91;20.96
78299;BME280;67556;55.656;12.590;2023-06-14T12:47:14;102072.28;;;25.78;20.63
78299;BME280;67556;55.656;12.590;2023-06-14T12:49:59;102067.56;;;26.00;21.22
78299;BME280;67556;55.656;12.590;2023-06-14T12:52:26;102073.00;;;26.04;21.76
78299;BME280;67556;55.656;12.590;2023-06-14T12:54:53;102069.97;;;26.33;21.29
78299;BME280;67556;55.656;12.590;2023-06-14T12:57:20;102063.47;;;26.51;21.07
78299;BME280;67556;55.656;12.590;2023-06-14T12:59:47;102063.53;;;26.42;21.01
78299;BME280;67556;55.656;12.590;2023-06-14T13:02:33;102066.97;;;26.64;20.53
78299;BME280;67556;55.656;12.590;2023-06-14T13:05:01;102066.81;;;26.78;20.71
78299;BME280;67556;55.656;12.590;2023-06-14T13:07:29;102070.22;;;26.97;20.20
78299;BME280;67556;55.656;12.590;2023-06-14T13:09:55;102061.25;;;26.84;20.12
78299;BME280;67556;55.656;12.590;2023-06-14T13:12:21;102059.53;;;26.75;20.32